Seneimaru — JG5357 — position and weather

sailwx.info

Track history (hours):
 
Tides and Currents Weather Stations Pressure Air Temp Water Temp Dewpoint Dewpoint Depression Visibility Wind Speed Wind Dir Waves Ship Positions

Seneimaru

Last reported at 2014-Jul-23 13:33 UTC. Time now 2014-Jul-23 14:00 UTC.
Position N 35°11' E 139°47'.

Length 72 m; draft 5.9 m.

Type: Cargo ship. MMSI: 431100477.

Date/timePositionNaut miles runAvg speedWind from/ knotsBaromVisibWave heightAir tempDewpointWater temp
2014-Jul-23 13:33N 35°11' E 139°47'1211.7
2014-Jul-23 12:33N 34°59' E 139°44'7 0.2
2014-Jul-22 04:33N 34°53' E 139°46'1211.7
2014-Jul-22 03:33N 35°04' E 139°44'1110.9
2014-Jul-22 02:33N 35°15' E 139°46'10 9.7
2014-Jul-22 01:33N 35°25' E 139°43'5 5.1
2014-Jul-22 00:34N 35°30' E 139°43'1 0.5
2014-Jul-21 23:32N 35°30' E 139°43'0 0.0
2014-Jul-21 22:32N 35°30' E 139°43'0 0.0
2014-Jul-21 21:32N 35°30' E 139°43'0 0.0
2014-Jul-21 20:32N 35°30' E 139°43'0 0.0
2014-Jul-21 20:17N 35°30' E 139°43'0 0.0
2014-Jul-21 19:32N 35°30' E 139°43'0 0.0
2014-Jul-21 18:32N 35°30' E 139°43'0 0.0
2014-Jul-21 17:32N 35°30' E 139°43'0 0.0
2014-Jul-21 16:32N 35°30' E 139°43'0 0.0
2014-Jul-21 15:32N 35°30' E 139°43'0 0.0
2014-Jul-21 14:32N 35°30' E 139°43'0 0.0
2014-Jul-21 13:32N 35°30' E 139°43'0 0.0
2014-Jul-21 12:32N 35°30' E 139°43'0 0.0
2014-Jul-21 11:32N 35°30' E 139°43'0 0.0
2014-Jul-21 10:32N 35°30' E 139°43'0 0.0
2014-Jul-21 09:29N 35°30' E 139°43'0 0.0
2014-Jul-21 08:32N 35°30' E 139°43'0 0.0
2014-Jul-21 07:32N 35°30' E 139°43'0 0.0
2014-Jul-21 06:32N 35°30' E 139°43'0 0.0
2014-Jul-21 05:32N 35°30' E 139°43'0 0.0
2014-Jul-21 04:32N 35°30' E 139°43'0 0.0
2014-Jul-21 03:32N 35°30' E 139°43'0 0.0
2014-Jul-21 02:32N 35°30' E 139°43'5 4.9
2014-Jul-21 01:33N 35°26' E 139°45'2 1.8
2014-Jul-21 00:32N 35°24' E 139°45'0 0.0
2014-Jul-20 23:32N 35°24' E 139°45'0 0.1
2014-Jul-20 22:32N 35°24' E 139°45'0 0.0
2014-Jul-20 21:32N 35°24' E 139°45'0 0.0
2014-Jul-20 20:32N 35°24' E 139°45'0 0.0
2014-Jul-20 19:32N 35°24' E 139°45'0 0.0
2014-Jul-20 18:32N 35°24' E 139°45'0 0.0
2014-Jul-20 17:32N 35°24' E 139°45'4 4.4
2014-Jul-20 16:33N 35°20' E 139°43'1110.6
2014-Jul-20 15:33N 35°09' E 139°46'1211.8
2014-Jul-20 14:33N 34°58' E 139°43'9 0.3
2014-Jul-19 08:20N 34°50' E 139°48'1013.0
2014-Jul-19 07:33N 34°59' E 139°43'1212.0
2014-Jul-19 06:33N 35°11' E 139°46'1211.6
2014-Jul-19 05:33N 35°22' E 139°42'9 8.5
2014-Jul-19 04:33N 35°30' E 139°45'2 1.8
2014-Jul-19 03:34N 35°30' E 139°43'0 0.0
2014-Jul-19 02:31N 35°30' E 139°43'0 0.0
2014-Jul-19 01:31N 35°30' E 139°43'0 0.0
2014-Jul-19 00:34N 35°30' E 139°43'0 0.0
2014-Jul-18 23:31N 35°30' E 139°43'0 0.0
2014-Jul-18 22:31N 35°30' E 139°43'0 0.0
2014-Jul-18 21:34N 35°30' E 139°43'1 1.5
2014-Jul-18 20:34N 35°29' E 139°42'5 5.3
2014-Jul-18 19:33N 35°24' E 139°44'0 0.0
2014-Jul-18 18:30N 35°24' E 139°44'0 0.0
2014-Jul-18 17:33N 35°24' E 139°44'0 0.0
2014-Jul-18 16:33N 35°24' E 139°44'0 0.1
2014-Jul-18 15:33N 35°24' E 139°44'0 0.0
2014-Jul-18 14:33N 35°24' E 139°44'1 1.3
2014-Jul-18 13:33N 35°23' E 139°44'1110.5
2014-Jul-18 12:33N 35°12' E 139°47'1211.9
2014-Jul-18 11:33N 35°00' E 139°44'8 0.3
2014-Jul-17 05:16N 34°52' E 139°46'811.5
2014-Jul-17 04:33N 34°60' E 139°43'1111.4
2014-Jul-17 03:33N 35°11' E 139°46'1211.6
2014-Jul-17 02:33N 35°22' E 139°42'8 7.8
2014-Jul-17 01:33N 35°30' E 139°44'1 1.3
2014-Jul-17 00:31N 35°30' E 139°43'0 0.0
2014-Jul-16 23:31N 35°30' E 139°43'0 0.0
2014-Jul-16 22:31N 35°30' E 139°43'0 0.0
2014-Jul-16 21:31N 35°30' E 139°43'1 1.2
2014-Jul-16 20:33N 35°29' E 139°42'5 5.0
2014-Jul-16 19:31N 35°24' E 139°45'0 0.0
2014-Jul-16 18:31N 35°24' E 139°45'0 0.0
2014-Jul-16 17:31N 35°24' E 139°45'0 0.0
2014-Jul-16 16:31N 35°24' E 139°45'0 0.0
2014-Jul-16 15:31N 35°24' E 139°45'0 0.3
2014-Jul-16 14:33N 35°24' E 139°45'1010.0
2014-Jul-16 13:33N 35°14' E 139°47'1212.0
2014-Jul-16 12:33N 35°02' E 139°44'51 1.9
2014-Jul-15 09:10N 34°15' E 140°09'811.4
2014-Jul-15 08:30N 34°22' E 140°05'2311.6
2014-Jul-15 06:32N 34°42' E 139°53'1211.2
2014-Jul-15 05:30N 34°53' E 139°46'1010.9
2014-Jul-15 04:33N 35°03' E 139°44'1211.5
2014-Jul-15 03:33N 35°14' E 139°46'1111.2
2014-Jul-15 02:34N 35°25' E 139°44'5 5.1
2014-Jul-15 01:33N 35°30' E 139°43'0 0.1
2014-Jul-15 00:33N 35°30' E 139°43'0 0.0
2014-Jul-14 23:33N 35°30' E 139°43'0 0.0
2014-Jul-14 22:30N 35°30' E 139°43'0 0.0
2014-Jul-14 21:33N 35°30' E 139°43'0 0.0
2014-Jul-14 20:33N 35°30' E 139°43'0 0.0
2014-Jul-14 19:33N 35°30' E 139°43'0 0.0
2014-Jul-14 18:33N 35°30' E 139°43'0 0.0
2014-Jul-14 17:33N 35°30' E 139°43'0 0.0
2014-Jul-14 16:33N 35°30' E 139°43'0 0.0
2014-Jul-14 15:33N 35°30' E 139°43'0 0.0
2014-Jul-14 14:33N 35°30' E 139°43'0 0.0
2014-Jul-14 13:30N 35°30' E 139°43'0 0.0
2014-Jul-14 12:33N 35°30' E 139°43'0 0.0
2014-Jul-14 11:30N 35°30' E 139°43'0 0.0
2014-Jul-14 10:33N 35°30' E 139°43'0 0.0
2014-Jul-14 09:33N 35°30' E 139°43'0 0.0
2014-Jul-14 08:33N 35°30' E 139°43'0 0.0
2014-Jul-14 07:33N 35°30' E 139°43'0 0.0
2014-Jul-14 06:33N 35°30' E 139°43'0 0.0
2014-Jul-14 05:33N 35°30' E 139°43'0 0.0
2014-Jul-14 04:30N 35°30' E 139°43'0 0.0
2014-Jul-14 03:30N 35°30' E 139°43'0 0.0
2014-Jul-14 02:33N 35°30' E 139°43'2 1.7
2014-Jul-14 01:34N 35°29' E 139°42'5 4.5
2014-Jul-14 00:28N 35°24' E 139°45'0 0.0
2014-Jul-13 23:31N 35°24' E 139°45'0 0.0
2014-Jul-13 22:34N 35°24' E 139°45'0 0.1
2014-Jul-13 21:33N 35°24' E 139°45'0 0.0
2014-Jul-13 20:33N 35°24' E 139°45'0 0.0
2014-Jul-13 19:34N 35°24' E 139°45'0 0.0
2014-Jul-13 18:34N 35°24' E 139°45'0 0.0
2014-Jul-13 17:33N 35°24' E 139°45'0 0.0
2014-Jul-13 16:32N 35°24' E 139°45'0 0.0
2014-Jul-13 15:33N 35°24' E 139°45'0 0.0
2014-Jul-13 14:28N 35°24' E 139°45'  
Track history (hours):
 
Tides and Currents Weather Stations Pressure Air Temp Water Temp Dewpoint Dewpoint Depression Visibility Wind Speed Wind Dir Waves Ship Positions

Seneimaru

Last reported at 2014-Jul-23 13:33 UTC. Time now 2014-Jul-23 14:00 UTC.
Position N 35°11' E 139°47'.

Length 72 m; draft 5.9 m.

Type: Cargo ship. MMSI: 431100477.

Date/timePositionNaut miles runAvg speedWind from/ knotsBaromVisibWave heightAir tempDewpointWater temp
2014-Jul-23 13:33N 35°11' E 139°47'1211.7
2014-Jul-23 12:33N 34°59' E 139°44'7 0.2
2014-Jul-22 04:33N 34°53' E 139°46'1211.7
2014-Jul-22 03:33N 35°04' E 139°44'1110.9
2014-Jul-22 02:33N 35°15' E 139°46'10 9.7
2014-Jul-22 01:33N 35°25' E 139°43'5 5.1
2014-Jul-22 00:34N 35°30' E 139°43'1 0.5
2014-Jul-21 23:32N 35°30' E 139°43'0 0.0
2014-Jul-21 22:32N 35°30' E 139°43'0 0.0
2014-Jul-21 21:32N 35°30' E 139°43'0 0.0
2014-Jul-21 20:32N 35°30' E 139°43'0 0.0
2014-Jul-21 20:17N 35°30' E 139°43'0 0.0
2014-Jul-21 19:32N 35°30' E 139°43'0 0.0
2014-Jul-21 18:32N 35°30' E 139°43'0 0.0
2014-Jul-21 17:32N 35°30' E 139°43'0 0.0
2014-Jul-21 16:32N 35°30' E 139°43'0 0.0
2014-Jul-21 15:32N 35°30' E 139°43'0 0.0
2014-Jul-21 14:32N 35°30' E 139°43'0 0.0
2014-Jul-21 13:32N 35°30' E 139°43'0 0.0
2014-Jul-21 12:32N 35°30' E 139°43'0 0.0
2014-Jul-21 11:32N 35°30' E 139°43'0 0.0
2014-Jul-21 10:32N 35°30' E 139°43'0 0.0
2014-Jul-21 09:29N 35°30' E 139°43'0 0.0
2014-Jul-21 08:32N 35°30' E 139°43'0 0.0
2014-Jul-21 07:32N 35°30' E 139°43'0 0.0
2014-Jul-21 06:32N 35°30' E 139°43'0 0.0
2014-Jul-21 05:32N 35°30' E 139°43'0 0.0
2014-Jul-21 04:32N 35°30' E 139°43'0 0.0
2014-Jul-21 03:32N 35°30' E 139°43'0 0.0
2014-Jul-21 02:32N 35°30' E 139°43'5 4.9
2014-Jul-21 01:33N 35°26' E 139°45'2 1.8
2014-Jul-21 00:32N 35°24' E 139°45'0 0.0
2014-Jul-20 23:32N 35°24' E 139°45'0 0.1
2014-Jul-20 22:32N 35°24' E 139°45'0 0.0
2014-Jul-20 21:32N 35°24' E 139°45'0 0.0
2014-Jul-20 20:32N 35°24' E 139°45'0 0.0
2014-Jul-20 19:32N 35°24' E 139°45'0 0.0
2014-Jul-20 18:32N 35°24' E 139°45'0 0.0
2014-Jul-20 17:32N 35°24' E 139°45'4 4.4
2014-Jul-20 16:33N 35°20' E 139°43'1110.6
2014-Jul-20 15:33N 35°09' E 139°46'1211.8
2014-Jul-20 14:33N 34°58' E 139°43'9 0.3
2014-Jul-19 08:20N 34°50' E 139°48'1013.0
2014-Jul-19 07:33N 34°59' E 139°43'1212.0
2014-Jul-19 06:33N 35°11' E 139°46'1211.6
2014-Jul-19 05:33N 35°22' E 139°42'9 8.5
2014-Jul-19 04:33N 35°30' E 139°45'2 1.8
2014-Jul-19 03:34N 35°30' E 139°43'0 0.0
2014-Jul-19 02:31N 35°30' E 139°43'0 0.0
2014-Jul-19 01:31N 35°30' E 139°43'0 0.0
2014-Jul-19 00:34N 35°30' E 139°43'0 0.0
2014-Jul-18 23:31N 35°30' E 139°43'0 0.0
2014-Jul-18 22:31N 35°30' E 139°43'0 0.0
2014-Jul-18 21:34N 35°30' E 139°43'1 1.5
2014-Jul-18 20:34N 35°29' E 139°42'5 5.3
2014-Jul-18 19:33N 35°24' E 139°44'0 0.0
2014-Jul-18 18:30N 35°24' E 139°44'0 0.0
2014-Jul-18 17:33N 35°24' E 139°44'0 0.0
2014-Jul-18 16:33N 35°24' E 139°44'0 0.1
2014-Jul-18 15:33N 35°24' E 139°44'0 0.0
2014-Jul-18 14:33N 35°24' E 139°44'1 1.3
2014-Jul-18 13:33N 35°23' E 139°44'1110.5
2014-Jul-18 12:33N 35°12' E 139°47'1211.9
2014-Jul-18 11:33N 35°00' E 139°44'8 0.3
2014-Jul-17 05:16N 34°52' E 139°46'811.5
2014-Jul-17 04:33N 34°60' E 139°43'1111.4
2014-Jul-17 03:33N 35°11' E 139°46'1211.6
2014-Jul-17 02:33N 35°22' E 139°42'8 7.8
2014-Jul-17 01:33N 35°30' E 139°44'1 1.3
2014-Jul-17 00:31N 35°30' E 139°43'0 0.0
2014-Jul-16 23:31N 35°30' E 139°43'0 0.0
2014-Jul-16 22:31N 35°30' E 139°43'0 0.0
2014-Jul-16 21:31N 35°30' E 139°43'1 1.2
2014-Jul-16 20:33N 35°29' E 139°42'5 5.0
2014-Jul-16 19:31N 35°24' E 139°45'0 0.0
2014-Jul-16 18:31N 35°24' E 139°45'0 0.0
2014-Jul-16 17:31N 35°24' E 139°45'0 0.0
2014-Jul-16 16:31N 35°24' E 139°45'0 0.0
2014-Jul-16 15:31N 35°24' E 139°45'0 0.3
2014-Jul-16 14:33N 35°24' E 139°45'1010.0
2014-Jul-16 13:33N 35°14' E 139°47'1212.0
2014-Jul-16 12:33N 35°02' E 139°44'51 1.9
2014-Jul-15 09:10N 34°15' E 140°09'811.4
2014-Jul-15 08:30N 34°22' E 140°05'2311.6
2014-Jul-15 06:32N 34°42' E 139°53'1211.2
2014-Jul-15 05:30N 34°53' E 139°46'1010.9
2014-Jul-15 04:33N 35°03' E 139°44'1211.5
2014-Jul-15 03:33N 35°14' E 139°46'1111.2
2014-Jul-15 02:34N 35°25' E 139°44'5 5.1
2014-Jul-15 01:33N 35°30' E 139°43'0 0.1
2014-Jul-15 00:33N 35°30' E 139°43'0 0.0
2014-Jul-14 23:33N 35°30' E 139°43'0 0.0
2014-Jul-14 22:30N 35°30' E 139°43'0 0.0
2014-Jul-14 21:33N 35°30' E 139°43'0 0.0
2014-Jul-14 20:33N 35°30' E 139°43'0 0.0
2014-Jul-14 19:33N 35°30' E 139°43'0 0.0
2014-Jul-14 18:33N 35°30' E 139°43'0 0.0
2014-Jul-14 17:33N 35°30' E 139°43'0 0.0
2014-Jul-14 16:33N 35°30' E 139°43'0 0.0
2014-Jul-14 15:33N 35°30' E 139°43'0 0.0
2014-Jul-14 14:33N 35°30' E 139°43'0 0.0
2014-Jul-14 13:30N 35°30' E 139°43'0 0.0
2014-Jul-14 12:33N 35°30' E 139°43'0 0.0
2014-Jul-14 11:30N 35°30' E 139°43'0 0.0
2014-Jul-14 10:33N 35°30' E 139°43'0 0.0
2014-Jul-14 09:33N 35°30' E 139°43'0 0.0
2014-Jul-14 08:33N 35°30' E 139°43'0 0.0
2014-Jul-14 07:33N 35°30' E 139°43'0 0.0
2014-Jul-14 06:33N 35°30' E 139°43'0 0.0
2014-Jul-14 05:33N 35°30' E 139°43'0 0.0
2014-Jul-14 04:30N 35°30' E 139°43'0 0.0
2014-Jul-14 03:30N 35°30' E 139°43'0 0.0
2014-Jul-14 02:33N 35°30' E 139°43'2 1.7
2014-Jul-14 01:34N 35°29' E 139°42'5 4.5
2014-Jul-14 00:28N 35°24' E 139°45'0 0.0
2014-Jul-13 23:31N 35°24' E 139°45'0 0.0
2014-Jul-13 22:34N 35°24' E 139°45'0 0.1
2014-Jul-13 21:33N 35°24' E 139°45'0 0.0
2014-Jul-13 20:33N 35°24' E 139°45'0 0.0
2014-Jul-13 19:34N 35°24' E 139°45'0 0.0
2014-Jul-13 18:34N 35°24' E 139°45'0 0.0
2014-Jul-13 17:33N 35°24' E 139°45'0 0.0
2014-Jul-13 16:32N 35°24' E 139°45'0 0.0
2014-Jul-13 15:33N 35°24' E 139°45'0 0.0
2014-Jul-13 14:28N 35°24' E 139°45'  

Dump ship's entire track history